sensor_id;sensor_type;location;lat;lon;timestamp;P1;durP1;ratioP1;P2;durP2;ratioP2
6420;SDS011;3243;50.958;7.012;2022-12-18T00:01:18;19.57;;;10.90;;
6420;SDS011;3243;50.958;7.012;2022-12-18T00:03:47;21.67;;;11.67;;
6420;SDS011;3243;50.958;7.012;2022-12-18T00:06:15;21.87;;;11.53;;
6420;SDS011;3243;50.958;7.012;2022-12-18T00:08:42;19.87;;;10.73;;
6420;SDS011;3243;50.958;7.012;2022-12-18T00:11:11;18.50;;;10.67;;
6420;SDS011;3243;50.958;7.012;2022-12-18T00:13:42;20.20;;;10.70;;
6420;SDS011;3243;50.958;7.012;2022-12-18T00:16:11;18.80;;;10.73;;
6420;SDS011;3243;50.958;7.012;2022-12-18T00:18:39;20.33;;;11.00;;
6420;SDS011;3243;50.958;7.012;2022-12-18T00:21:07;17.37;;;10.27;;
6420;SDS011;3243;50.958;7.012;2022-12-18T00:23:36;16.43;;;10.13;;
6420;SDS011;3243;50.958;7.012;2022-12-18T00:26:06;17.63;;;10.67;;
6420;SDS011;3243;50.958;7.012;2022-12-18T00:28:35;17.03;;;10.23;;
6420;SDS011;3243;50.958;7.012;2022-12-18T00:31:03;18.13;;;10.10;;
6420;SDS011;3243;50.958;7.012;2022-12-18T00:33:32;18.80;;;10.30;;
6420;SDS011;3243;50.958;7.012;2022-12-18T00:36:10;21.77;;;10.70;;
6420;SDS011;3243;50.958;7.012;2022-12-18T00:38:45;20.90;;;11.17;;
6420;SDS011;3243;50.958;7.012;2022-12-18T00:41:13;17.43;;;9.97;;
6420;SDS011;3243;50.958;7.012;2022-12-18T00:44:01;18.33;;;11.13;;
6420;SDS011;3243;50.958;7.012;2022-12-18T00:46:29;18.50;;;10.20;;
6420;SDS011;3243;50.958;7.012;2022-12-18T00:48:56;18.10;;;11.20;;
6420;SDS011;3243;50.958;7.012;2022-12-18T00:51:23;18.37;;;10.37;;
6420;SDS011;3243;50.958;7.012;2022-12-18T00:53:50;22.20;;;11.33;;
6420;SDS011;3243;50.958;7.012;2022-12-18T00:56:17;20.00;;;10.57;;
6420;SDS011;3243;50.958;7.012;2022-12-18T00:58:44;22.37;;;10.93;;
6420;SDS011;3243;50.958;7.012;2022-12-18T01:01:11;20.70;;;11.07;;
6420;SDS011;3243;50.958;7.012;2022-12-18T01:03:38;18.23;;;11.13;;
6420;SDS011;3243;50.958;7.012;2022-12-18T01:06:07;20.60;;;10.70;;
6420;SDS011;3243;50.958;7.012;2022-12-18T01:08:35;21.03;;;10.67;;
6420;SDS011;3243;50.958;7.012;2022-12-18T01:11:13;20.33;;;10.53;;
6420;SDS011;3243;50.958;7.012;2022-12-18T01:13:42;15.07;;;9.73;;
6420;SDS011;3243;50.958;7.012;2022-12-18T01:16:13;19.67;;;9.87;;
6420;SDS011;3243;50.958;7.012;2022-12-18T01:18:42;20.17;;;10.47;;
6420;SDS011;3243;50.958;7.012;2022-12-18T01:21:10;18.70;;;10.67;;
6420;SDS011;3243;50.958;7.012;2022-12-18T01:23:39;20.07;;;9.93;;
6420;SDS011;3243;50.958;7.012;2022-12-18T01:26:08;17.57;;;10.60;;
6420;SDS011;3243;50.958;7.012;2022-12-18T01:28:36;17.13;;;10.53;;
6420;SDS011;3243;50.958;7.012;2022-12-18T01:31:09;17.67;;;10.00;;
6420;SDS011;3243;50.958;7.012;2022-12-18T01:33:42;18.63;;;10.17;;
6420;SDS011;3243;50.958;7.012;2022-12-18T01:36:14;17.87;;;10.80;;
6420;SDS011;3243;50.958;7.012;2022-12-18T01:38:45;16.57;;;9.53;;
6420;SDS011;3243;50.958;7.012;2022-12-18T01:41:13;19.83;;;10.80;;
6420;SDS011;3243;50.958;7.012;2022-12-18T01:43:42;16.87;;;10.10;;
6420;SDS011;3243;50.958;7.012;2022-12-18T01:46:09;14.83;;;9.67;;
6420;SDS011;3243;50.958;7.012;2022-12-18T01:48:36;17.80;;;9.90;;
6420;SDS011;3243;50.958;7.012;2022-12-18T01:51:04;16.27;;;10.27;;
6420;SDS011;3243;50.958;7.012;2022-12-18T01:53:33;18.63;;;10.20;;
6420;SDS011;3243;50.958;7.012;2022-12-18T01:56:02;20.13;;;10.37;;
6420;SDS011;3243;50.958;7.012;2022-12-18T01:58:34;19.10;;;9.90;;
6420;SDS011;3243;50.958;7.012;2022-12-18T02:01:02;15.50;;;9.53;;
6420;SDS011;3243;50.958;7.012;2022-12-18T02:03:29;16.67;;;10.43;;
6420;SDS011;3243;50.958;7.012;2022-12-18T02:27:12;17.67;;;9.83;;
6420;SDS011;3243;50.958;7.012;2022-12-18T02:29:52;15.90;;;9.60;;
6420;SDS011;3243;50.958;7.012;2022-12-18T02:32:25;19.63;;;9.23;;
6420;SDS011;3243;50.958;7.012;2022-12-18T02:35:02;15.30;;;9.23;;
6420;SDS011;3243;50.958;7.012;2022-12-18T02:37:31;15.23;;;8.80;;
6420;SDS011;3243;50.958;7.012;2022-12-18T02:39:59;15.37;;;9.20;;
6420;SDS011;3243;50.958;7.012;2022-12-18T02:42:27;18.37;;;9.87;;
6420;SDS011;3243;50.958;7.012;2022-12-18T02:44:54;16.37;;;9.30;;
6420;SDS011;3243;50.958;7.012;2022-12-18T02:47:22;13.93;;;9.17;;
6420;SDS011;3243;50.958;7.012;2022-12-18T03:01:21;16.67;;;9.33;;
6420;SDS011;3243;50.958;7.012;2022-12-18T03:04:01;16.47;;;9.17;;
6420;SDS011;3243;50.958;7.012;2022-12-18T03:06:37;17.37;;;8.83;;
6420;SDS011;3243;50.958;7.012;2022-12-18T03:09:08;17.83;;;8.53;;
6420;SDS011;3243;50.958;7.012;2022-12-18T03:11:39;15.53;;;9.03;;
6420;SDS011;3243;50.958;7.012;2022-12-18T03:14:29;16.70;;;9.50;;
6420;SDS011;3243;50.958;7.012;2022-12-18T03:17:04;15.83;;;9.37;;
6420;SDS011;3243;50.958;7.012;2022-12-18T03:19:35;12.70;;;8.80;;
6420;SDS011;3243;50.958;7.012;2022-12-18T03:22:05;16.07;;;8.83;;
6420;SDS011;3243;50.958;7.012;2022-12-18T03:24:34;15.60;;;9.33;;
6420;SDS011;3243;50.958;7.012;2022-12-18T03:27:06;13.87;;;8.87;;
6420;SDS011;3243;50.958;7.012;2022-12-18T03:29:44;15.77;;;9.00;;
6420;SDS011;3243;50.958;7.012;2022-12-18T03:32:30;15.40;;;8.43;;
6420;SDS011;3243;50.958;7.012;2022-12-18T03:35:00;17.53;;;9.00;;
6420;SDS011;3243;50.958;7.012;2022-12-18T03:37:30;17.33;;;8.77;;
6420;SDS011;3243;50.958;7.012;2022-12-18T03:39:57;13.43;;;8.30;;
6420;SDS011;3243;50.958;7.012;2022-12-18T03:42:26;14.13;;;8.90;;
6420;SDS011;3243;50.958;7.012;2022-12-18T03:47:58;15.50;;;8.30;;
6420;SDS011;3243;50.958;7.012;2022-12-18T03:56:08;13.50;;;8.27;;
6420;SDS011;3243;50.958;7.012;2022-12-18T03:58:37;15.53;;;9.00;;
6420;SDS011;3243;50.958;7.012;2022-12-18T04:01:07;14.67;;;9.00;;
6420;SDS011;3243;50.958;7.012;2022-12-18T04:03:39;17.13;;;8.83;;
6420;SDS011;3243;50.958;7.012;2022-12-18T04:06:08;16.23;;;8.80;;
6420;SDS011;3243;50.958;7.012;2022-12-18T04:08:37;14.03;;;8.77;;
6420;SDS011;3243;50.958;7.012;2022-12-18T04:11:06;14.93;;;8.93;;
6420;SDS011;3243;50.958;7.012;2022-12-18T04:13:34;22.17;;;9.97;;
6420;SDS011;3243;50.958;7.012;2022-12-18T04:16:03;15.03;;;8.90;;
6420;SDS011;3243;50.958;7.012;2022-12-18T04:18:30;15.67;;;8.50;;
6420;SDS011;3243;50.958;7.012;2022-12-18T04:20:57;16.27;;;9.20;;
6420;SDS011;3243;50.958;7.012;2022-12-18T04:23:24;15.30;;;9.47;;
6420;SDS011;3243;50.958;7.012;2022-12-18T04:25:51;15.47;;;9.37;;
6420;SDS011;3243;50.958;7.012;2022-12-18T04:28:18;15.97;;;8.73;;
6420;SDS011;3243;50.958;7.012;2022-12-18T04:30:49;13.90;;;9.03;;
6420;SDS011;3243;50.958;7.012;2022-12-18T04:33:16;13.20;;;8.77;;
6420;SDS011;3243;50.958;7.012;2022-12-18T04:35:42;17.87;;;9.47;;
6420;SDS011;3243;50.958;7.012;2022-12-18T04:38:09;15.63;;;8.93;;
6420;SDS011;3243;50.958;7.012;2022-12-18T04:40:37;16.73;;;9.63;;
6420;SDS011;3243;50.958;7.012;2022-12-18T04:43:06;12.60;;;9.03;;
6420;SDS011;3243;50.958;7.012;2022-12-18T04:45:33;15.97;;;8.73;;
6420;SDS011;3243;50.958;7.012;2022-12-18T04:48:00;19.40;;;9.83;;
6420;SDS011;3243;50.958;7.012;2022-12-18T04:50:27;14.87;;;9.00;;
6420;SDS011;3243;50.958;7.012;2022-12-18T04:52:54;14.63;;;9.73;;
6420;SDS011;3243;50.958;7.012;2022-12-18T04:55:24;18.07;;;9.47;;
6420;SDS011;3243;50.958;7.012;2022-12-18T04:57:51;16.07;;;9.10;;
6420;SDS011;3243;50.958;7.012;2022-12-18T05:00:18;16.63;;;9.80;;
6420;SDS011;3243;50.958;7.012;2022-12-18T05:02:45;18.17;;;9.43;;
6420;SDS011;3243;50.958;7.012;2022-12-18T05:05:12;19.83;;;9.47;;
6420;SDS011;3243;50.958;7.012;2022-12-18T05:07:39;13.90;;;8.30;;
6420;SDS011;3243;50.958;7.012;2022-12-18T05:10:07;16.60;;;8.93;;
6420;SDS011;3243;50.958;7.012;2022-12-18T05:12:35;15.27;;;9.13;;
6420;SDS011;3243;50.958;7.012;2022-12-18T05:15:22;17.07;;;9.43;;
6420;SDS011;3243;50.958;7.012;2022-12-18T05:17:49;15.13;;;8.77;;
6420;SDS011;3243;50.958;7.012;2022-12-18T05:20:16;15.50;;;8.87;;
6420;SDS011;3243;50.958;7.012;2022-12-18T05:22:44;15.20;;;8.83;;
6420;SDS011;3243;50.958;7.012;2022-12-18T05:25:11;13.03;;;8.20;;
6420;SDS011;3243;50.958;7.012;2022-12-18T05:27:37;14.93;;;8.33;;
6420;SDS011;3243;50.958;7.012;2022-12-18T05:30:04;17.27;;;8.73;;
6420;SDS011;3243;50.958;7.012;2022-12-18T05:32:32;14.90;;;8.33;;
6420;SDS011;3243;50.958;7.012;2022-12-18T05:34:59;13.17;;;8.50;;
6420;SDS011;3243;50.958;7.012;2022-12-18T05:37:25;13.03;;;7.90;;
6420;SDS011;3243;50.958;7.012;2022-12-18T05:39:52;15.23;;;8.30;;
6420;SDS011;3243;50.958;7.012;2022-12-18T05:42:19;15.50;;;8.87;;
6420;SDS011;3243;50.958;7.012;2022-12-18T05:44:46;12.43;;;8.00;;
6420;SDS011;3243;50.958;7.012;2022-12-18T05:47:13;14.67;;;9.03;;
6420;SDS011;3243;50.958;7.012;2022-12-18T05:49:40;16.37;;;8.70;;
6420;SDS011;3243;50.958;7.012;2022-12-18T05:52:07;15.13;;;8.63;;
6420;SDS011;3243;50.958;7.012;2022-12-18T05:54:34;14.40;;;9.00;;
6420;SDS011;3243;50.958;7.012;2022-12-18T05:57:02;15.63;;;8.70;;
6420;SDS011;3243;50.958;7.012;2022-12-18T05:59:28;16.13;;;9.63;;
6420;SDS011;3243;50.958;7.012;2022-12-18T06:01:55;15.37;;;9.20;;
6420;SDS011;3243;50.958;7.012;2022-12-18T06:04:22;15.83;;;9.67;;
6420;SDS011;3243;50.958;7.012;2022-12-18T06:06:49;14.97;;;9.37;;
6420;SDS011;3243;50.958;7.012;2022-12-18T06:09:16;16.30;;;9.40;;
6420;SDS011;3243;50.958;7.012;2022-12-18T06:11:43;15.73;;;8.53;;
6420;SDS011;3243;50.958;7.012;2022-12-18T06:14:09;15.30;;;8.70;;
6420;SDS011;3243;50.958;7.012;2022-12-18T06:16:36;14.77;;;8.90;;
6420;SDS011;3243;50.958;7.012;2022-12-18T06:19:04;13.60;;;8.93;;
6420;SDS011;3243;50.958;7.012;2022-12-18T06:21:32;16.50;;;9.50;;
6420;SDS011;3243;50.958;7.012;2022-12-18T06:23:59;14.43;;;9.17;;
6420;SDS011;3243;50.958;7.012;2022-12-18T06:26:26;14.10;;;9.00;;
6420;SDS011;3243;50.958;7.012;2022-12-18T06:28:54;18.57;;;9.40;;
6420;SDS011;3243;50.958;7.012;2022-12-18T06:31:21;16.57;;;9.33;;
6420;SDS011;3243;50.958;7.012;2022-12-18T06:33:47;18.00;;;10.10;;
6420;SDS011;3243;50.958;7.012;2022-12-18T06:36:14;17.43;;;9.63;;
6420;SDS011;3243;50.958;7.012;2022-12-18T06:38:43;16.73;;;9.27;;
6420;SDS011;3243;50.958;7.012;2022-12-18T06:41:11;15.07;;;9.23;;
6420;SDS011;3243;50.958;7.012;2022-12-18T06:43:42;16.83;;;9.90;;
6420;SDS011;3243;50.958;7.012;2022-12-18T06:46:10;17.50;;;9.50;;
6420;SDS011;3243;50.958;7.012;2022-12-18T06:48:37;17.63;;;10.17;;
6420;SDS011;3243;50.958;7.012;2022-12-18T06:51:04;13.53;;;9.37;;
6420;SDS011;3243;50.958;7.012;2022-12-18T06:53:32;17.47;;;9.97;;
6420;SDS011;3243;50.958;7.012;2022-12-18T06:55:59;17.37;;;10.10;;
6420;SDS011;3243;50.958;7.012;2022-12-18T06:58:35;15.17;;;9.33;;
6420;SDS011;3243;50.958;7.012;2022-12-18T07:01:03;20.00;;;10.30;;
6420;SDS011;3243;50.958;7.012;2022-12-18T07:03:31;20.03;;;10.73;;
6420;SDS011;3243;50.958;7.012;2022-12-18T07:05:58;16.67;;;10.07;;
6420;SDS011;3243;50.958;7.012;2022-12-18T07:08:25;16.43;;;10.23;;
6420;SDS011;3243;50.958;7.012;2022-12-18T07:10:52;17.57;;;10.10;;
6420;SDS011;3243;50.958;7.012;2022-12-18T07:13:21;19.33;;;10.50;;
6420;SDS011;3243;50.958;7.012;2022-12-18T07:15:48;16.80;;;10.77;;
6420;SDS011;3243;50.958;7.012;2022-12-18T07:18:15;19.00;;;10.83;;
6420;SDS011;3243;50.958;7.012;2022-12-18T07:20:42;16.10;;;10.20;;
6420;SDS011;3243;50.958;7.012;2022-12-18T07:23:11;16.47;;;10.20;;
6420;SDS011;3243;50.958;7.012;2022-12-18T07:25:38;15.43;;;10.53;;
6420;SDS011;3243;50.958;7.012;2022-12-18T07:28:05;21.10;;;10.87;;
6420;SDS011;3243;50.958;7.012;2022-12-18T07:30:39;19.67;;;11.00;;
6420;SDS011;3243;50.958;7.012;2022-12-18T07:33:07;17.53;;;10.30;;
6420;SDS011;3243;50.958;7.012;2022-12-18T07:35:37;19.70;;;10.67;;
6420;SDS011;3243;50.958;7.012;2022-12-18T07:38:03;18.40;;;11.13;;
6420;SDS011;3243;50.958;7.012;2022-12-18T07:40:30;18.70;;;10.70;;
6420;SDS011;3243;50.958;7.012;2022-12-18T07:42:57;19.00;;;10.83;;
6420;SDS011;3243;50.958;7.012;2022-12-18T07:45:24;19.33;;;10.03;;
6420;SDS011;3243;50.958;7.012;2022-12-18T07:47:51;19.20;;;10.80;;
6420;SDS011;3243;50.958;7.012;2022-12-18T07:50:18;18.23;;;10.63;;
6420;SDS011;3243;50.958;7.012;2022-12-18T07:52:45;17.50;;;10.47;;
6420;SDS011;3243;50.958;7.012;2022-12-18T07:55:12;20.50;;;11.20;;
6420;SDS011;3243;50.958;7.012;2022-12-18T07:57:39;19.37;;;10.07;;
6420;SDS011;3243;50.958;7.012;2022-12-18T08:00:17;17.13;;;10.63;;
6420;SDS011;3243;50.958;7.012;2022-12-18T08:02:46;19.27;;;10.80;;
6420;SDS011;3243;50.958;7.012;2022-12-18T08:05:13;19.90;;;10.63;;
6420;SDS011;3243;50.958;7.012;2022-12-18T08:07:40;18.50;;;10.80;;
6420;SDS011;3243;50.958;7.012;2022-12-18T08:10:07;17.90;;;10.93;;
6420;SDS011;3243;50.958;7.012;2022-12-18T08:12:34;21.73;;;10.73;;
6420;SDS011;3243;50.958;7.012;2022-12-18T08:15:01;20.33;;;10.73;;
6420;SDS011;3243;50.958;7.012;2022-12-18T08:17:28;16.47;;;10.30;;
6420;SDS011;3243;50.958;7.012;2022-12-18T08:19:55;20.27;;;11.40;;
6420;SDS011;3243;50.958;7.012;2022-12-18T08:22:22;17.23;;;10.27;;
6420;SDS011;3243;50.958;7.012;2022-12-18T08:24:49;23.40;;;10.93;;
6420;SDS011;3243;50.958;7.012;2022-12-18T08:27:16;18.50;;;11.00;;
6420;SDS011;3243;50.958;7.012;2022-12-18T08:29:55;18.13;;;11.17;;
6420;SDS011;3243;50.958;7.012;2022-12-18T08:32:22;17.10;;;10.10;;
6420;SDS011;3243;50.958;7.012;2022-12-18T08:34:50;16.07;;;10.07;;
6420;SDS011;3243;50.958;7.012;2022-12-18T08:37:16;19.77;;;11.20;;
6420;SDS011;3243;50.958;7.012;2022-12-18T08:39:43;15.03;;;10.03;;
6420;SDS011;3243;50.958;7.012;2022-12-18T08:42:10;18.13;;;10.17;;
6420;SDS011;3243;50.958;7.012;2022-12-18T08:44:55;22.10;;;10.47;;
6420;SDS011;3243;50.958;7.012;2022-12-18T08:47:22;16.93;;;10.00;;
6420;SDS011;3243;50.958;7.012;2022-12-18T08:49:49;17.33;;;10.43;;
6420;SDS011;3243;50.958;7.012;2022-12-18T08:52:16;14.73;;;9.83;;
6420;SDS011;3243;50.958;7.012;2022-12-18T08:54:43;18.07;;;10.50;;
6420;SDS011;3243;50.958;7.012;2022-12-18T08:57:10;18.07;;;10.57;;
6420;SDS011;3243;50.958;7.012;2022-12-18T08:59:37;19.93;;;11.13;;
6420;SDS011;3243;50.958;7.012;2022-12-18T09:02:04;16.00;;;9.93;;
6420;SDS011;3243;50.958;7.012;2022-12-18T09:04:32;48.80;;;24.93;;
6420;SDS011;3243;50.958;7.012;2022-12-18T09:06:59;21.27;;;12.20;;
6420;SDS011;3243;50.958;7.012;2022-12-18T09:09:26;18.67;;;12.07;;
6420;SDS011;3243;50.958;7.012;2022-12-18T09:11:53;17.63;;;10.93;;
6420;SDS011;3243;50.958;7.012;2022-12-18T09:14:20;18.67;;;10.37;;
6420;SDS011;3243;50.958;7.012;2022-12-18T09:16:47;15.57;;;10.30;;
6420;SDS011;3243;50.958;7.012;2022-12-18T09:19:14;20.40;;;11.27;;
6420;SDS011;3243;50.958;7.012;2022-12-18T09:21:41;19.73;;;12.53;;
6420;SDS011;3243;50.958;7.012;2022-12-18T09:24:16;18.23;;;11.00;;
6420;SDS011;3243;50.958;7.012;2022-12-18T09:26:43;30.97;;;17.93;;
6420;SDS011;3243;50.958;7.012;2022-12-18T09:29:12;59.47;;;26.67;;
6420;SDS011;3243;50.958;7.012;2022-12-18T09:31:40;44.83;;;20.57;;
6420;SDS011;3243;50.958;7.012;2022-12-18T09:34:07;23.07;;;13.47;;
6420;SDS011;3243;50.958;7.012;2022-12-18T09:36:34;33.90;;;18.30;;
6420;SDS011;3243;50.958;7.012;2022-12-18T09:39:01;22.07;;;13.73;;
6420;SDS011;3243;50.958;7.012;2022-12-18T09:46:46;27.10;;;15.87;;
6420;SDS011;3243;50.958;7.012;2022-12-18T09:49:19;19.47;;;12.83;;
6420;SDS011;3243;50.958;7.012;2022-12-18T09:51:54;19.40;;;11.70;;
6420;SDS011;3243;50.958;7.012;2022-12-18T09:54:33;17.93;;;10.73;;
6420;SDS011;3243;50.958;7.012;2022-12-18T09:57:04;17.63;;;10.03;;
6420;SDS011;3243;50.958;7.012;2022-12-18T09:59:38;17.73;;;10.10;;
6420;SDS011;3243;50.958;7.012;2022-12-18T10:05:03;17.63;;;10.70;;
6420;SDS011;3243;50.958;7.012;2022-12-18T10:07:43;17.63;;;10.20;;
6420;SDS011;3243;50.958;7.012;2022-12-18T10:15:45;17.53;;;10.50;;
6420;SDS011;3243;50.958;7.012;2022-12-18T10:27:31;18.37;;;10.60;;
6420;SDS011;3243;50.958;7.012;2022-12-18T10:29:58;19.07;;;10.17;;
6420;SDS011;3243;50.958;7.012;2022-12-18T10:32:28;16.97;;;9.90;;
6420;SDS011;3243;50.958;7.012;2022-12-18T10:34:56;17.93;;;10.73;;
6420;SDS011;3243;50.958;7.012;2022-12-18T10:37:27;16.20;;;9.77;;
6420;SDS011;3243;50.958;7.012;2022-12-18T10:42:47;17.67;;;10.67;;
6420;SDS011;3243;50.958;7.012;2022-12-18T10:45:28;18.97;;;9.60;;
6420;SDS011;3243;50.958;7.012;2022-12-18T10:47:55;19.23;;;10.37;;
6420;SDS011;3243;50.958;7.012;2022-12-18T10:50:29;19.13;;;10.27;;
6420;SDS011;3243;50.958;7.012;2022-12-18T10:53:28;15.83;;;9.90;;
6420;SDS011;3243;50.958;7.012;2022-12-18T10:55:57;19.77;;;10.17;;
6420;SDS011;3243;50.958;7.012;2022-12-18T11:06:17;17.57;;;10.03;;
6420;SDS011;3243;50.958;7.012;2022-12-18T11:08:58;15.10;;;9.57;;
6420;SDS011;3243;50.958;7.012;2022-12-18T11:11:38;18.40;;;10.70;;
6420;SDS011;3243;50.958;7.012;2022-12-18T11:14:06;17.87;;;10.17;;
6420;SDS011;3243;50.958;7.012;2022-12-18T11:16:47;16.70;;;10.00;;
6420;SDS011;3243;50.958;7.012;2022-12-18T11:19:36;19.20;;;10.47;;
6420;SDS011;3243;50.958;7.012;2022-12-18T11:22:19;18.27;;;10.83;;
6420;SDS011;3243;50.958;7.012;2022-12-18T11:24:54;16.43;;;9.80;;
6420;SDS011;3243;50.958;7.012;2022-12-18T11:27:54;16.87;;;10.70;;
6420;SDS011;3243;50.958;7.012;2022-12-18T11:32:55;18.47;;;11.37;;
6420;SDS011;3243;50.958;7.012;2022-12-18T11:35:32;18.67;;;11.27;;
6420;SDS011;3243;50.958;7.012;2022-12-18T11:38:12;16.80;;;10.00;;
6420;SDS011;3243;50.958;7.012;2022-12-18T11:40:47;22.10;;;11.47;;
6420;SDS011;3243;50.958;7.012;2022-12-18T11:46:09;30.93;;;14.17;;
6420;SDS011;3243;50.958;7.012;2022-12-18T11:48:46;17.97;;;11.20;;
6420;SDS011;3243;50.958;7.012;2022-12-18T11:51:35;23.57;;;11.40;;
6420;SDS011;3243;50.958;7.012;2022-12-18T11:54:14;20.50;;;11.10;;
6420;SDS011;3243;50.958;7.012;2022-12-18T11:56:49;20.30;;;11.77;;
6420;SDS011;3243;50.958;7.012;2022-12-18T12:01:53;22.07;;;11.13;;
6420;SDS011;3243;50.958;7.012;2022-12-18T12:12:16;17.90;;;11.63;;
6420;SDS011;3243;50.958;7.012;2022-12-18T12:26:12;25.13;;;12.20;;
6420;SDS011;3243;50.958;7.012;2022-12-18T12:29:04;19.27;;;12.50;;
6420;SDS011;3243;50.958;7.012;2022-12-18T12:34:29;25.87;;;13.13;;
6420;SDS011;3243;50.958;7.012;2022-12-18T12:37:18;20.17;;;11.80;;
6420;SDS011;3243;50.958;7.012;2022-12-18T12:39:58;22.93;;;12.43;;
6420;SDS011;3243;50.958;7.012;2022-12-18T12:43:30;22.40;;;12.47;;
6420;SDS011;3243;50.958;7.012;2022-12-18T12:45:46;20.63;;;12.00;;
6420;SDS011;3243;50.958;7.012;2022-12-18T12:48:43;19.80;;;12.73;;
6420;SDS011;3243;50.958;7.012;2022-12-18T12:51:26;20.13;;;12.20;;
6420;SDS011;3243;50.958;7.012;2022-12-18T12:53:56;22.30;;;12.33;;
6420;SDS011;3243;50.958;7.012;2022-12-18T12:57:09;23.03;;;13.80;;
6420;SDS011;3243;50.958;7.012;2022-12-18T12:59:31;21.70;;;13.37;;
6420;SDS011;3243;50.958;7.012;2022-12-18T13:07:38;21.70;;;12.03;;
6420;SDS011;3243;50.958;7.012;2022-12-18T13:10:25;25.20;;;12.97;;
6420;SDS011;3243;50.958;7.012;2022-12-18T13:15:38;20.10;;;12.50;;
6420;SDS011;3243;50.958;7.012;2022-12-18T13:18:18;22.80;;;12.93;;
6420;SDS011;3243;50.958;7.012;2022-12-18T13:20:50;21.73;;;13.13;;
6420;SDS011;3243;50.958;7.012;2022-12-18T13:23:32;21.43;;;13.00;;
6420;SDS011;3243;50.958;7.012;2022-12-18T13:31:12;24.83;;;13.97;;
6420;SDS011;3243;50.958;7.012;2022-12-18T13:33:44;19.73;;;12.20;;
6420;SDS011;3243;50.958;7.012;2022-12-18T13:36:32;22.17;;;13.37;;
6420;SDS011;3243;50.958;7.012;2022-12-18T13:44:37;26.33;;;13.50;;
6420;SDS011;3243;50.958;7.012;2022-12-18T13:50:24;21.50;;;12.87;;
6420;SDS011;3243;50.958;7.012;2022-12-18T13:53:00;23.70;;;13.53;;
6420;SDS011;3243;50.958;7.012;2022-12-18T13:55:27;24.93;;;14.50;;
6420;SDS011;3243;50.958;7.012;2022-12-18T13:58:04;24.13;;;13.77;;
6420;SDS011;3243;50.958;7.012;2022-12-18T14:00:32;22.10;;;13.60;;
6420;SDS011;3243;50.958;7.012;2022-12-18T14:02:59;25.33;;;14.07;;
6420;SDS011;3243;50.958;7.012;2022-12-18T14:05:28;22.07;;;13.90;;
6420;SDS011;3243;50.958;7.012;2022-12-18T14:07:58;26.00;;;13.37;;
6420;SDS011;3243;50.958;7.012;2022-12-18T14:10:29;23.30;;;13.97;;
6420;SDS011;3243;50.958;7.012;2022-12-18T14:13:24;22.57;;;14.87;;
6420;SDS011;3243;50.958;7.012;2022-12-18T14:15:55;24.10;;;14.43;;
6420;SDS011;3243;50.958;7.012;2022-12-18T14:18:25;23.87;;;14.30;;
6420;SDS011;3243;50.958;7.012;2022-12-18T14:20:59;27.17;;;13.90;;
6420;SDS011;3243;50.958;7.012;2022-12-18T14:23:41;22.90;;;13.80;;
6420;SDS011;3243;50.958;7.012;2022-12-18T14:28:58;24.50;;;13.77;;
6420;SDS011;3243;50.958;7.012;2022-12-18T14:31:30;24.50;;;13.87;;
6420;SDS011;3243;50.958;7.012;2022-12-18T14:33:58;27.53;;;14.97;;
6420;SDS011;3243;50.958;7.012;2022-12-18T14:36:25;24.50;;;14.03;;
6420;SDS011;3243;50.958;7.012;2022-12-18T14:38:54;26.23;;;15.13;;
6420;SDS011;3243;50.958;7.012;2022-12-18T14:41:25;25.27;;;13.67;;
6420;SDS011;3243;50.958;7.012;2022-12-18T14:43:53;26.67;;;15.30;;
6420;SDS011;3243;50.958;7.012;2022-12-18T14:48:50;26.43;;;16.10;;
6420;SDS011;3243;50.958;7.012;2022-12-18T14:51:21;23.53;;;14.47;;
6420;SDS011;3243;50.958;7.012;2022-12-18T14:53:59;26.73;;;15.83;;
6420;SDS011;3243;50.958;7.012;2022-12-18T14:56:34;24.30;;;14.60;;
6420;SDS011;3243;50.958;7.012;2022-12-18T14:59:04;27.27;;;15.73;;
6420;SDS011;3243;50.958;7.012;2022-12-18T15:07:02;24.43;;;14.50;;
6420;SDS011;3243;50.958;7.012;2022-12-18T15:09:36;23.63;;;15.13;;
6420;SDS011;3243;50.958;7.012;2022-12-18T15:12:03;25.30;;;15.00;;
6420;SDS011;3243;50.958;7.012;2022-12-18T15:14:35;28.00;;;14.60;;
6420;SDS011;3243;50.958;7.012;2022-12-18T15:17:14;25.70;;;15.30;;
6420;SDS011;3243;50.958;7.012;2022-12-18T15:19:45;25.20;;;14.83;;
6420;SDS011;3243;50.958;7.012;2022-12-18T15:22:20;26.17;;;15.20;;
6420;SDS011;3243;50.958;7.012;2022-12-18T15:24:53;29.13;;;15.57;;
6420;SDS011;3243;50.958;7.012;2022-12-18T15:30:16;27.77;;;16.33;;
6420;SDS011;3243;50.958;7.012;2022-12-18T15:32:47;29.60;;;16.37;;
6420;SDS011;3243;50.958;7.012;2022-12-18T15:35:20;29.37;;;16.33;;
6420;SDS011;3243;50.958;7.012;2022-12-18T15:37:51;29.37;;;16.80;;
6420;SDS011;3243;50.958;7.012;2022-12-18T15:40:22;26.77;;;16.20;;
6420;SDS011;3243;50.958;7.012;2022-12-18T15:42:51;27.93;;;16.27;;
6420;SDS011;3243;50.958;7.012;2022-12-18T15:45:38;30.60;;;16.43;;
6420;SDS011;3243;50.958;7.012;2022-12-18T15:48:15;29.10;;;16.60;;
6420;SDS011;3243;50.958;7.012;2022-12-18T15:50:46;29.10;;;16.40;;
6420;SDS011;3243;50.958;7.012;2022-12-18T15:53:14;29.63;;;17.27;;
6420;SDS011;3243;50.958;7.012;2022-12-18T15:55:41;29.80;;;16.13;;
6420;SDS011;3243;50.958;7.012;2022-12-18T15:58:26;28.90;;;16.30;;
6420;SDS011;3243;50.958;7.012;2022-12-18T16:00:53;31.93;;;17.50;;
6420;SDS011;3243;50.958;7.012;2022-12-18T16:03:22;32.60;;;17.97;;
6420;SDS011;3243;50.958;7.012;2022-12-18T16:05:50;31.57;;;17.23;;
6420;SDS011;3243;50.958;7.012;2022-12-18T16:08:17;34.13;;;17.50;;
6420;SDS011;3243;50.958;7.012;2022-12-18T16:10:45;30.60;;;18.57;;
6420;SDS011;3243;50.958;7.012;2022-12-18T16:13:12;30.63;;;18.57;;
6420;SDS011;3243;50.958;7.012;2022-12-18T16:15:44;32.20;;;18.50;;
6420;SDS011;3243;50.958;7.012;2022-12-18T16:18:11;31.43;;;18.37;;
6420;SDS011;3243;50.958;7.012;2022-12-18T16:20:38;31.67;;;17.67;;
6420;SDS011;3243;50.958;7.012;2022-12-18T16:23:05;34.70;;;18.97;;
6420;SDS011;3243;50.958;7.012;2022-12-18T16:25:32;31.30;;;18.03;;
6420;SDS011;3243;50.958;7.012;2022-12-18T16:27:59;31.17;;;18.00;;
6420;SDS011;3243;50.958;7.012;2022-12-18T16:30:27;35.90;;;19.63;;
6420;SDS011;3243;50.958;7.012;2022-12-18T16:33:03;34.47;;;19.53;;
6420;SDS011;3243;50.958;7.012;2022-12-18T16:35:32;33.93;;;19.67;;
6420;SDS011;3243;50.958;7.012;2022-12-18T16:37:59;33.50;;;19.20;;
6420;SDS011;3243;50.958;7.012;2022-12-18T16:40:27;34.20;;;20.03;;
6420;SDS011;3243;50.958;7.012;2022-12-18T16:42:54;34.60;;;19.17;;
6420;SDS011;3243;50.958;7.012;2022-12-18T16:45:21;33.73;;;18.97;;
6420;SDS011;3243;50.958;7.012;2022-12-18T16:47:48;36.27;;;18.97;;
6420;SDS011;3243;50.958;7.012;2022-12-18T16:50:15;33.13;;;19.70;;
6420;SDS011;3243;50.958;7.012;2022-12-18T16:52:42;34.77;;;19.70;;
6420;SDS011;3243;50.958;7.012;2022-12-18T16:55:09;32.03;;;20.03;;
6420;SDS011;3243;50.958;7.012;2022-12-18T16:57:36;34.03;;;20.30;;
6420;SDS011;3243;50.958;7.012;2022-12-18T17:00:03;34.13;;;19.43;;
6420;SDS011;3243;50.958;7.012;2022-12-18T17:02:31;35.90;;;20.03;;
6420;SDS011;3243;50.958;7.012;2022-12-18T17:04:59;36.43;;;19.73;;
6420;SDS011;3243;50.958;7.012;2022-12-18T17:07:26;35.87;;;20.50;;
6420;SDS011;3243;50.958;7.012;2022-12-18T17:09:54;40.27;;;19.83;;
6420;SDS011;3243;50.958;7.012;2022-12-18T17:12:21;36.50;;;19.97;;
6420;SDS011;3243;50.958;7.012;2022-12-18T17:14:48;38.23;;;19.73;;
6420;SDS011;3243;50.958;7.012;2022-12-18T17:17:16;36.03;;;19.87;;
6420;SDS011;3243;50.958;7.012;2022-12-18T17:19:47;32.50;;;19.53;;
6420;SDS011;3243;50.958;7.012;2022-12-18T17:22:14;35.50;;;19.47;;
6420;SDS011;3243;50.958;7.012;2022-12-18T17:24:41;32.80;;;19.60;;
6420;SDS011;3243;50.958;7.012;2022-12-18T17:27:08;33.77;;;20.10;;
6420;SDS011;3243;50.958;7.012;2022-12-18T17:29:35;35.03;;;20.43;;
6420;SDS011;3243;50.958;7.012;2022-12-18T17:32:11;36.67;;;20.30;;
6420;SDS011;3243;50.958;7.012;2022-12-18T17:34:38;31.93;;;19.17;;